Time;durP1;ratioP1;P1;durP2;ratioP2;P2;SDS_P1;SDS_P2;PMS_P1;PMS_P2;Temp;Humidity;BMP_temperature;BMP_pressure;BME280_temperature;BME280_humidity;BME280_pressure;Samples;Min_cycle;Max_cycle;Signal;HPM_P1;HPM_P2
2023/06/30 00:00:00;;;;;;;0.10;0.10;;;;;;;16.77;61.74;101619.31;5076768;28;20502;-79
2023/06/30 00:02:27;;;;;;;0.10;0.10;;;;;;;16.75;61.43;101623.84;5076431;28;20041;-79
2023/06/30 00:04:53;;;;;;;0.10;0.10;;;;;;;16.69;61.83;101621.38;5084278;28;20039;-79
2023/06/30 00:07:21;;;;;;;0.13;0.13;;;;;;;16.72;61.58;101612.38;5086039;28;20032;-79
2023/06/30 00:09:48;;;;;;;0.00;0.00;;;;;;;16.72;61.26;101612.38;5081167;28;20028;-79
2023/06/30 00:12:14;;;;;;;0.10;0.10;;;;;;;16.70;61.21;101614.22;5079400;28;20036;-79
2023/06/30 00:14:40;;;;;;;0.10;0.10;;;;;;;16.66;61.44;101618.81;5078645;28;20024;-79
2023/06/30 00:17:06;;;;;;;0.10;0.10;;;;;;;16.63;61.21;101609.06;5079106;28;20063;-79
2023/06/30 00:19:33;;;;;;;0.10;0.10;;;;;;;16.61;61.81;101615.38;5080541;28;20098;-79
2023/06/30 00:21:59;;;;;;;0.00;0.00;;;;;;;16.55;62.04;101613.81;5080750;28;20620;-79
2023/06/30 00:24:25;;;;;;;0.20;0.20;;;;;;;16.58;61.67;101607.47;5080742;28;20108;-79
2023/06/30 00:26:51;;;;;;;0.10;0.10;;;;;;;16.58;61.39;101604.81;5079346;28;20259;-79
2023/06/30 00:29:18;;;;;;;0.10;0.10;;;;;;;16.57;61.49;101603.03;5078308;28;20051;-79
2023/06/30 00:31:44;;;;;;;0.10;0.10;;;;;;;16.54;61.76;101609.38;5077975;28;20024;-78
2023/06/30 00:34:10;;;;;;;0.10;0.10;;;;;;;16.55;61.89;101608.47;5078543;28;20111;-78
2023/06/30 00:36:36;;;;;;;4.70;1.00;;;;;;;16.52;61.87;101605.00;5078119;28;20016;-79
2023/06/30 00:39:02;;;;;;;0.05;0.05;;;;;;;16.55;61.69;101615.59;5075420;28;20108;-78
2023/06/30 00:41:28;;;;;;;0.10;0.10;;;;;;;16.53;61.26;101596.06;5085467;28;20501;-78
2023/06/30 00:43:55;;;;;;;0.10;0.10;;;;;;;16.45;61.98;101602.53;5077470;28;20119;-80
2023/06/30 00:46:22;;;;;;;0.10;0.10;;;;;;;16.48;61.50;101588.19;5077330;28;20726;-79
2023/06/30 00:48:49;;;;;;;0.10;0.10;;;;;;;16.46;62.15;101596.25;5077192;28;20038;-78
2023/06/30 00:51:15;;;;;;;0.70;0.40;;;;;;;16.44;62.06;101603.44;5078008;28;20021;-80
2023/06/30 00:53:41;;;;;;;0.10;0.10;;;;;;;16.44;61.86;101597.25;5078068;28;20504;-78
2023/06/30 00:56:07;;;;;;;0.10;0.10;;;;;;;16.38;62.40;101603.66;5076559;28;20474;-79
2023/06/30 00:58:34;;;;;;;0.10;0.10;;;;;;;16.38;62.28;101608.13;5076818;28;20541;-79
2023/06/30 01:01:10;;;;;;;0.10;0.10;;;;;;;16.40;62.17;101600.91;5076997;28;20060;-79
2023/06/30 01:03:48;;;;;;;0.10;0.10;;;;;;;16.40;61.88;101601.81;5078572;28;20126;-78
2023/06/30 01:06:30;;;;;;;0.10;0.10;;;;;;;16.38;62.16;101606.31;5071319;28;20502;-79
2023/06/30 01:09:17;;;;;;;0.10;0.10;;;;;;;16.38;62.35;101609.00;5077271;28;20032;-79
2023/06/30 01:11:44;;;;;;;0.10;0.10;;;;;;;16.30;62.29;101608.38;5077830;28;20028;-79
2023/06/30 01:14:12;;;;;;;0.20;0.20;;;;;;;16.28;62.32;101607.53;5082170;28;20028;-79
2023/06/30 01:16:40;;;;;;;0.10;0.10;;;;;;;16.26;62.27;101612.06;5078900;28;20393;-78
2023/06/30 01:19:28;;;;;;;0.00;0.00;;;;;;;16.24;62.57;101612.13;5066400;28;20021;-78
2023/06/30 01:22:02;;;;;;;0.10;0.10;;;;;;;16.21;62.78;101611.34;5074864;28;20123;-78
2023/06/30 01:24:34;;;;;;;0.20;0.20;;;;;;;16.21;62.54;101601.50;5075392;28;20081;-76
2023/06/30 01:27:01;;;;;;;0.10;0.10;;;;;;;16.20;62.54;101598.88;5074089;28;20028;-78
2023/06/30 01:29:28;;;;;;;0.10;0.10;;;;;;;16.16;62.45;101604.34;5074586;28;20318;-78
2023/06/30 01:31:54;;;;;;;0.10;0.10;;;;;;;16.14;63.11;101608.84;5076136;28;20534;-78
2023/06/30 01:34:21;;;;;;;0.10;0.10;;;;;;;16.13;62.88;101598.22;5076333;28;20405;-78
2023/06/30 01:36:48;;;;;;;0.10;0.10;;;;;;;16.12;62.83;101602.66;5073708;28;20101;-77
2023/06/30 01:39:15;;;;;;;2.03;0.60;;;;;;;16.12;62.58;101605.34;5073515;28;20021;-78
2023/06/30 01:41:44;;;;;;;0.10;0.10;;;;;;;16.10;62.92;101600.97;5074717;28;20028;-78
2023/06/30 01:44:10;;;;;;;0.10;0.10;;;;;;;16.10;62.48;101609.88;5073252;28;20106;-77
2023/06/30 01:46:36;;;;;;;0.10;0.10;;;;;;;16.09;62.58;101602.78;5072327;28;20036;-77
2023/06/30 01:49:03;;;;;;;0.10;0.10;;;;;;;16.06;63.31;101602.84;5074091;28;20082;-77
2023/06/30 01:51:29;;;;;;;0.00;0.00;;;;;;;16.04;63.21;101601.16;5071792;28;20051;-77
2023/06/30 01:53:55;;;;;;;0.10;0.10;;;;;;;16.05;63.20;101602.91;5074543;28;20029;-77
2023/06/30 01:56:22;;;;;;;0.10;0.10;;;;;;;16.03;63.15;101594.94;5075207;28;20444;-78
2023/06/30 01:58:48;;;;;;;0.10;0.10;;;;;;;16.02;62.97;101595.84;5074274;28;20024;-78
2023/06/30 02:01:14;;;;;;;0.57;0.57;;;;;;;16.00;62.93;101597.72;5075953;28;20501;-77
2023/06/30 02:03:40;;;;;;;0.10;0.10;;;;;;;15.99;63.18;101591.47;5081818;28;20032;-78
2023/06/30 02:06:06;;;;;;;0.10;0.10;;;;;;;15.98;62.95;101588.88;5079559;28;20032;-79
2023/06/30 02:08:32;;;;;;;0.10;0.10;;;;;;;15.98;63.24;101594.22;5077800;28;20377;-78
2023/06/30 02:10:58;;;;;;;0.00;0.00;;;;;;;15.96;63.25;101591.59;5077064;28;20027;-79
2023/06/30 02:13:24;;;;;;;0.10;0.10;;;;;;;15.95;63.03;101583.59;5075855;28;20028;-78
2023/06/30 02:15:51;;;;;;;0.10;0.10;;;;;;;15.96;62.69;101582.69;5076314;28;20095;-79
2023/06/30 02:18:17;;;;;;;0.10;0.10;;;;;;;15.91;63.13;101579.28;5076665;28;20496;-79
2023/06/30 02:20:43;;;;;;;0.10;0.10;;;;;;;15.90;63.18;101585.53;5076511;28;20033;-78
2023/06/30 02:23:09;;;;;;;0.10;0.10;;;;;;;15.90;63.24;101585.53;5085157;28;20037;-79
2023/06/30 02:25:35;;;;;;;0.20;0.20;;;;;;;15.90;63.14;101585.53;5077158;28;20133;-79
2023/06/30 02:28:01;;;;;;;0.10;0.10;;;;;;;15.92;62.87;101578.38;5074896;28;20044;-79
2023/06/30 02:30:27;;;;;;;0.10;0.10;;;;;;;15.90;63.66;101582.88;5075493;28;20597;-79
2023/06/30 02:32:53;;;;;;;0.10;0.10;;;;;;;15.91;63.38;101584.63;5077026;28;20086;-78
2023/06/30 02:35:19;;;;;;;0.10;0.10;;;;;;;15.90;63.43;101580.19;5076576;28;20023;-77
2023/06/30 02:37:45;;;;;;;0.10;0.10;;;;;;;15.89;63.66;101589.13;5075945;28;20032;-77
2023/06/30 02:40:12;;;;;;;0.10;0.10;;;;;;;15.82;64.10;101589.31;5075340;28;20378;-79
2023/06/30 02:42:38;;;;;;;0.30;0.30;;;;;;;15.88;63.61;101579.38;5075361;28;20039;-78
2023/06/30 02:45:05;;;;;;;0.10;0.10;;;;;;;15.90;63.69;101580.19;5075773;28;20493;-78
2023/06/30 02:47:31;;;;;;;0.20;0.20;;;;;;;15.90;63.16;101574.84;5075124;28;20040;-79
2023/06/30 02:49:57;;;;;;;0.10;0.10;;;;;;;15.87;63.40;101581.16;5076795;28;20029;-79
2023/06/30 02:52:23;;;;;;;0.00;0.00;;;;;;;15.88;63.52;101580.25;5078016;28;20032;-79
2023/06/30 02:54:49;;;;;;;0.10;0.10;;;;;;;15.83;64.04;101583.06;5076794;28;20043;-79
2023/06/30 02:57:15;;;;;;;0.10;0.10;;;;;;;15.88;63.54;101582.06;5074179;28;20036;-78
2023/06/30 02:59:42;;;;;;;0.10;0.10;;;;;;;15.89;63.69;101583.78;5073903;28;20214;-78
2023/06/30 03:02:08;;;;;;;0.10;0.10;;;;;;;15.87;63.62;101574.97;5072501;28;20285;-77
2023/06/30 03:04:34;;;;;;;0.00;0.00;;;;;;;15.88;63.71;101584.75;5077068;28;20103;-79
2023/06/30 03:07:00;;;;;;;0.20;0.20;;;;;;;15.87;63.95;101588.31;5074729;28;20028;-80
2023/06/30 03:09:26;;;;;;;0.10;0.10;;;;;;;15.88;64.10;101590.94;5075213;28;20025;-79
2023/06/30 03:11:52;;;;;;;0.10;0.10;;;;;;;15.86;64.17;101590.09;5075481;28;20039;-76
2023/06/30 03:14:18;;;;;;;0.10;0.10;;;;;;;15.88;63.92;101592.75;5076037;28;20078;-78
2023/06/30 03:16:44;;;;;;;0.47;0.47;;;;;;;15.81;64.42;101592.91;5070377;28;20101;-79
2023/06/30 03:19:10;;;;;;;0.10;0.10;;;;;;;15.83;64.16;101582.19;5073843;28;20032;-77
2023/06/30 03:21:36;;;;;;;1.35;0.55;;;;;;;15.86;64.27;101587.44;5075396;28;20404;-77
2023/06/30 03:24:03;;;;;;;0.10;0.10;;;;;;;15.84;64.02;101584.81;5074330;28;20032;-78
2023/06/30 03:26:29;;;;;;;0.10;0.10;;;;;;;15.83;64.27;101585.72;5072309;28;20069;-78
2023/06/30 03:28:55;;;;;;;0.10;0.10;;;;;;;15.81;64.42;101590.22;5075943;28;20028;-79
2023/06/30 03:31:22;;;;;;;0.10;0.10;;;;;;;15.87;64.44;101585.66;5073794;28;20064;-79
2023/06/30 03:33:48;;;;;;;0.10;0.10;;;;;;;15.89;64.14;101586.47;5077355;28;20036;-79
2023/06/30 03:36:14;;;;;;;0.10;0.10;;;;;;;15.92;63.83;101586.38;5075411;28;20071;-77
2023/06/30 03:38:40;;;;;;;0.15;0.15;;;;;;;15.92;63.75;101589.06;5077145;28;20017;-77
2023/06/30 03:41:06;;;;;;;0.10;0.10;;;;;;;15.91;64.06;101587.31;5075448;28;20040;-77
2023/06/30 03:43:33;;;;;;;0.10;0.10;;;;;;;15.89;64.10;101589.13;5078791;28;20055;-78
2023/06/30 03:45:59;;;;;;;0.10;0.10;;;;;;;15.90;63.98;101590.88;5079087;28;20040;-78
2023/06/30 03:48:25;;;;;;;0.10;0.10;;;;;;;15.92;64.20;101589.91;5080092;28;20032;-78
2023/06/30 03:50:53;;;;;;;0.10;0.10;;;;;;;15.93;64.18;101585.47;5080195;28;20036;-78
2023/06/30 03:53:21;;;;;;;0.10;0.10;;;;;;;15.94;64.00;101589.91;5083660;28;20016;-77
2023/06/30 03:55:47;;;;;;;0.05;0.05;;;;;;;15.95;63.88;101588.94;5082621;28;20024;-77
2023/06/30 03:58:13;;;;;;;0.20;0.20;;;;;;;15.91;64.61;101582.81;5080692;28;20020;-77
2023/06/30 04:00:39;;;;;;;0.75;0.50;;;;;;;15.94;64.42;101588.09;5080813;28;20024;-78
2023/06/30 04:03:08;;;;;;;0.10;0.10;;;;;;;15.94;64.38;101585.41;5080323;28;20041;-78
2023/06/30 04:05:35;;;;;;;0.10;0.10;;;;;;;15.97;64.09;101597.81;5080009;28;20020;-78
2023/06/30 04:08:01;;;;;;;0.03;0.03;;;;;;;15.96;64.48;101580.91;5078898;28;20056;-78
2023/06/30 04:10:27;;;;;;;0.10;0.10;;;;;;;15.98;64.68;101578.19;5079489;28;20028;-78
2023/06/30 04:12:53;;;;;;;0.10;0.10;;;;;;;15.99;64.48;101575.44;5079008;28;20033;-78
2023/06/30 04:15:19;;;;;;;0.10;0.10;;;;;;;16.02;64.27;101579.81;5078674;28;20028;-78
2023/06/30 04:17:45;;;;;;;0.10;0.10;;;;;;;16.04;64.73;101569.97;5078143;28;20020;-78
2023/06/30 04:20:15;;;;;;;0.10;0.10;;;;;;;16.06;64.72;101565.44;5078485;28;20036;-79
2023/06/30 04:22:41;;;;;;;0.50;0.50;;;;;;;16.05;65.46;101571.72;5082072;28;20038;-79
2023/06/30 04:25:08;;;;;;;0.00;0.00;;;;;;;16.11;64.92;101578.66;5081145;28;20470;-79
2023/06/30 04:27:35;;;;;;;0.00;0.00;;;;;;;16.14;64.70;101571.41;5080474;28;20028;-76
2023/06/30 04:30:01;;;;;;;0.10;0.10;;;;;;;16.18;64.68;101575.75;5081431;28;20402;-78
2023/06/30 04:32:27;;;;;;;0.00;0.00;;;;;;;16.23;64.95;101572.06;5081617;28;20788;-79
2023/06/30 04:34:53;;;;;;;0.00;0.00;;;;;;;16.27;64.94;101573.72;5080375;28;20698;-79
2023/06/30 04:37:19;;;;;;;0.00;0.00;;;;;;;16.29;65.44;101572.72;5078526;28;20153;-79
2023/06/30 04:39:47;;;;;;;0.08;0.08;;;;;;;16.31;65.46;101572.66;5080587;28;20020;-77
2023/06/30 04:42:14;;;;;;;0.30;0.30;;;;;;;16.34;65.71;101567.25;5079878;28;20100;-78
2023/06/30 04:44:40;;;;;;;0.10;0.10;;;;;;;16.40;65.67;101567.03;5080023;28;20081;-79
2023/06/30 04:47:06;;;;;;;0.10;0.10;;;;;;;16.47;65.28;101575.72;5071738;28;20482;-79
2023/06/30 04:49:32;;;;;;;0.15;0.15;;;;;;;16.50;65.30;101573.81;5080702;28;20119;-79
2023/06/30 04:51:58;;;;;;;0.00;0.00;;;;;;;16.53;65.70;101578.19;5081531;28;20035;-78
2023/06/30 04:54:24;;;;;;;0.20;0.20;;;;;;;16.60;65.59;101581.56;5079631;28;20044;-79
2023/06/30 04:56:51;;;;;;;0.10;0.10;;;;;;;16.65;65.06;101580.47;5074563;28;20036;-78
2023/06/30 04:59:17;;;;;;;0.10;0.10;;;;;;;16.71;65.52;101578.50;5076939;28;20088;-79
2023/06/30 05:01:43;;;;;;;0.10;0.10;;;;;;;16.76;65.18;101577.44;5076342;28;20040;-79
2023/06/30 05:04:09;;;;;;;0.10;0.10;;;;;;;16.81;65.08;101572.78;5077104;28;20033;-79
2023/06/30 05:06:35;;;;;;;0.10;0.10;;;;;;;16.83;65.27;101578.09;5076274;28;20032;-78
2023/06/30 05:09:01;;;;;;;0.10;0.10;;;;;;;16.84;65.39;101581.66;5079719;28;20039;-78
2023/06/30 05:11:27;;;;;;;0.10;0.10;;;;;;;16.88;65.35;101577.94;5076904;28;20371;-79
2023/06/30 05:13:53;;;;;;;0.10;0.10;;;;;;;16.94;65.08;101575.06;5077519;28;20033;-79
2023/06/30 05:16:19;;;;;;;0.10;0.10;;;;;;;17.02;64.69;101570.31;5078302;28;20032;-80
2023/06/30 05:18:45;;;;;;;1.88;1.75;;;;;;;17.09;64.68;101568.31;5077394;28;20105;-79
2023/06/30 05:21:11;;;;;;;0.73;0.73;;;;;;;17.10;65.14;101573.59;5074897;28;20032;-79
2023/06/30 05:23:38;;;;;;;2.13;0.70;;;;;;;17.17;64.98;101576.06;5071930;28;20028;-80
2023/06/30 05:26:05;;;;;;;0.20;0.20;;;;;;;17.19;64.94;101572.38;5071666;28;20509;-80
2023/06/30 05:28:31;;;;;;;0.10;0.10;;;;;;;17.26;64.75;101571.25;5069233;28;20516;-81
2023/06/30 05:30:57;;;;;;;0.10;0.10;;;;;;;17.33;64.65;101571.03;5074192;28;20090;-80
2023/06/30 05:33:23;;;;;;;0.10;0.10;;;;;;;17.30;64.87;101577.38;5075130;28;20107;-80
2023/06/30 05:35:49;;;;;;;0.03;0.03;;;;;;;17.37;64.91;101570.84;5074591;28;20512;-81
2023/06/30 05:38:15;;;;;;;0.35;0.35;;;;;;;17.39;64.74;101560.06;5072648;28;20037;-80
2023/06/30 05:40:41;;;;;;;0.10;0.10;;;;;;;17.48;64.48;101565.06;5073678;28;20107;-80
2023/06/30 05:43:07;;;;;;;0.10;0.10;;;;;;;17.45;64.73;101571.44;5073411;28;20441;-80
2023/06/30 05:45:34;;;;;;;0.63;0.32;;;;;;;17.57;64.43;101571.91;5073230;28;20553;-79
2023/06/30 05:48:00;;;;;;;0.10;0.10;;;;;;;17.56;64.97;101563.00;5068431;28;20043;-81
2023/06/30 05:50:27;;;;;;;0.10;0.10;;;;;;;17.63;64.22;101567.19;5073356;28;20051;-81
2023/06/30 05:52:53;;;;;;;0.10;0.10;;;;;;;17.73;64.11;101575.75;5074576;28;20024;-78
2023/06/30 05:55:19;;;;;;;0.00;0.00;;;;;;;17.68;64.41;101571.50;5081045;28;20032;-80
2023/06/30 05:57:46;;;;;;;0.10;0.10;;;;;;;17.77;64.19;101565.81;5091487;28;20032;-80
2023/06/30 06:00:12;;;;;;;0.10;0.10;;;;;;;17.87;63.98;101577.00;5083350;28;20078;-78
2023/06/30 06:02:38;;;;;;;0.10;0.10;;;;;;;17.91;63.90;101567.94;5075985;28;20037;-80
2023/06/30 06:05:05;;;;;;;0.17;0.17;;;;;;;17.93;63.68;101566.94;5075143;28;20028;-79
2023/06/30 06:07:31;;;;;;;0.10;0.10;;;;;;;18.01;63.53;101572.03;5074325;28;20029;-79
2023/06/30 06:09:57;;;;;;;0.10;0.10;;;;;;;18.05;63.18;101576.31;5070767;28;20500;-79
2023/06/30 06:12:23;;;;;;;0.10;0.10;;;;;;;18.12;63.06;101566.25;5067545;28;20135;-79
2023/06/30 06:14:50;;;;;;;0.00;0.00;;;;;;;18.16;63.28;101567.00;5072957;28;20088;-78
2023/06/30 06:17:16;;;;;;;0.10;0.10;;;;;;;18.24;63.17;101559.50;5074675;28;20035;-80
2023/06/30 06:19:42;;;;;;;0.10;0.10;;;;;;;18.29;63.02;101562.84;5076839;28;20543;-80
2023/06/30 06:22:08;;;;;;;0.13;0.13;;;;;;;18.36;62.60;101559.00;5076936;28;20504;-80
2023/06/30 06:24:34;;;;;;;0.10;0.10;;;;;;;18.41;62.64;101559.66;5075792;28;20099;-79
2023/06/30 06:27:00;;;;;;;0.10;0.10;;;;;;;18.43;62.35;101565.84;5078077;28;20036;-79
2023/06/30 06:29:26;;;;;;;0.85;0.63;;;;;;;18.49;61.88;101566.53;5077900;28;20056;-80
2023/06/30 06:31:53;;;;;;;0.05;0.05;;;;;;;18.55;61.64;101566.28;5074295;28;20486;-79
2023/06/30 06:34:19;;;;;;;0.10;0.10;;;;;;;18.57;61.45;101567.09;5075525;28;20033;-80
2023/06/30 06:36:46;;;;;;;0.08;0.08;;;;;;;18.64;60.92;101568.59;5076683;28;20534;-79
2023/06/30 06:39:12;;;;;;;0.10;0.10;;;;;;;18.63;59.89;101571.31;5074515;28;20116;-79
2023/06/30 06:41:42;;;;;;;1.08;1.08;;;;;;;18.58;59.12;101568.84;5075631;28;20040;-79
2023/06/30 06:44:08;;;;;;;0.10;0.10;;;;;;;18.74;59.32;101569.03;5076260;28;20020;-78
2023/06/30 06:46:34;;;;;;;0.10;0.10;;;;;;;18.79;58.97;101577.81;5073662;28;20028;-77
2023/06/30 06:49:00;;;;;;;0.10;0.10;;;;;;;18.95;59.18;101569.97;5075113;28;20028;-80
2023/06/30 06:51:26;;;;;;;0.13;0.13;;;;;;;18.92;58.16;101570.09;5076834;28;20017;-78
2023/06/30 06:53:53;;;;;;;0.10;0.10;;;;;;;19.05;57.86;101573.13;5081924;28;20028;-80
2023/06/30 06:56:20;;;;;;;0.13;0.13;;;;;;;19.10;57.22;101570.25;5078997;28;20044;-78
2023/06/30 06:58:46;;;;;;;0.10;0.10;;;;;;;19.14;56.68;101572.72;5073498;28;20107;-77
2023/06/30 07:01:12;;;;;;;0.00;0.00;;;;;;;19.21;57.19;101573.31;5073601;28;20012;-76
2023/06/30 07:03:38;;;;;;;0.10;0.10;;;;;;;19.22;55.88;101573.25;5075824;28;20032;-78
2023/06/30 07:06:06;;;;;;;0.10;0.10;;;;;;;19.37;56.41;101571.69;5071881;28;20470;-77
2023/06/30 07:08:35;;;;;;;0.10;0.10;;;;;;;19.42;56.09;101566.09;5069643;28;20059;-78
2023/06/30 07:11:02;;;;;;;0.10;0.10;;;;;;;19.52;56.18;101566.56;5071135;28;20024;-77
2023/06/30 07:13:29;;;;;;;0.30;0.30;;;;;;;19.50;53.85;101566.63;5071715;28;20024;-79
2023/06/30 07:15:55;;;;;;;0.10;0.10;;;;;;;19.64;54.33;101574.06;5072413;28;20119;-79
2023/06/30 07:18:21;;;;;;;0.15;0.15;;;;;;;19.62;51.85;101573.25;5072411;28;20512;-79
2023/06/30 07:20:48;;;;;;;0.10;0.10;;;;;;;19.73;52.99;101576.28;5078991;28;20032;-78
2023/06/30 07:23:15;;;;;;;0.10;0.10;;;;;;;19.81;51.70;101567.00;5078776;28;20379;-77
2023/06/30 07:25:42;;;;;;;1.08;1.08;;;;;;;19.83;50.39;101566.00;5070471;28;20028;-77
2023/06/30 07:28:08;;;;;;;0.10;0.10;;;;;;;19.98;51.61;101568.94;5068152;28;20060;-79
2023/06/30 07:30:36;;;;;;;0.22;0.22;;;;;;;20.04;51.51;101566.81;5079631;28;20036;-80
2023/06/30 07:33:02;;;;;;;0.22;0.22;;;;;;;20.11;49.88;101569.19;5078193;28;20139;-79
2023/06/30 07:35:28;;;;;;;0.00;0.00;;;;;;;20.18;49.71;101559.88;5076739;28;20056;-77
2023/06/30 07:37:55;;;;;;;0.10;0.10;;;;;;;20.23;48.71;101568.59;5074864;28;20032;-76
2023/06/30 07:40:21;;;;;;;0.30;0.30;;;;;;;20.29;47.62;101562.06;5075404;28;20039;-78
2023/06/30 07:42:47;;;;;;;0.25;0.25;;;;;;;20.43;48.45;101553.28;5080546;28;20070;-80
2023/06/30 07:45:16;;;;;;;0.10;0.10;;;;;;;20.51;48.60;101556.44;5080874;28;20489;-80
2023/06/30 07:47:44;;;;;;;0.10;0.10;;;;;;;20.64;47.13;101554.88;5089732;28;20099;-79
2023/06/30 07:50:12;;;;;;;0.10;0.10;;;;;;;20.79;48.14;101549.69;5084279;28;20451;-79
2023/06/30 07:52:53;;;;;;;0.20;0.20;;;;;;;21.01;48.75;101542.22;5079319;28;20036;-80
2023/06/30 07:55:19;;;;;;;0.57;0.57;;;;;;;21.06;47.01;101550.06;5076472;28;20111;-80
2023/06/30 07:57:47;;;;;;;0.10;0.10;;;;;;;21.21;47.88;101543.00;5080603;28;20039;-80
2023/06/30 08:00:16;;;;;;;0.10;0.10;;;;;;;21.29;46.88;101543.44;5075344;28;20066;-78
2023/06/30 08:02:43;;;;;;;0.10;0.10;;;;;;;21.41;47.74;101549.09;5075016;28;20782;-80
2023/06/30 08:05:09;;;;;;;0.20;0.20;;;;;;;21.51;47.28;101553.06;5075510;28;20025;-79
2023/06/30 08:07:35;;;;;;;0.00;0.00;;;;;;;21.67;47.13;101542.34;5075879;28;20036;-79
2023/06/30 08:10:02;;;;;;;0.00;0.00;;;;;;;21.83;45.88;101541.47;5074354;28;20488;-80
2023/06/30 08:12:29;;;;;;;0.10;0.10;;;;;;;22.00;46.10;101537.81;5069538;28;20032;-79
2023/06/30 08:14:55;;;;;;;0.10;0.10;;;;;;;22.05;44.93;101546.50;5074216;28;20033;-77
2023/06/30 08:17:21;;;;;;;0.38;0.38;;;;;;;22.17;44.10;101535.00;5075071;28;20055;-78
2023/06/30 08:19:47;;;;;;;0.40;0.40;;;;;;;22.34;46.30;101536.69;5076245;28;20020;-78
2023/06/30 08:22:13;;;;;;;0.10;0.10;;;;;;;22.42;44.90;101533.59;5075422;28;20039;-78
2023/06/30 08:24:42;;;;;;;0.50;0.50;;;;;;;22.57;45.71;101531.81;5076565;28;20032;-79
2023/06/30 08:27:09;;;;;;;0.10;0.10;;;;;;;22.58;44.05;101534.44;5067387;28;20024;-78
2023/06/30 08:29:36;;;;;;;0.35;0.35;;;;;;;22.50;42.82;101534.00;5073527;28;20029;-79
2023/06/30 08:32:02;;;;;;;0.00;0.00;;;;;;;22.60;43.83;101531.63;5076696;28;20097;-78
2023/06/30 08:34:28;;;;;;;0.30;0.30;;;;;;;22.74;43.28;101528.97;5075725;28;20020;-78
2023/06/30 08:36:55;;;;;;;0.38;0.38;;;;;;;22.82;42.33;101523.09;5075149;28;20058;-78
2023/06/30 08:39:22;;;;;;;0.00;0.00;;;;;;;22.90;42.62;101522.63;5075678;28;20099;-77
2023/06/30 08:41:52;;;;;;;0.10;0.10;;;;;;;22.99;43.36;101522.06;5076258;28;20081;-78
2023/06/30 08:44:23;;;;;;;0.10;0.10;;;;;;;23.05;43.02;101510.88;5076309;28;20115;-79
2023/06/30 08:46:52;;;;;;;0.10;0.10;;;;;;;23.12;43.63;101508.66;5076679;28;20709;-79
2023/06/30 08:49:21;;;;;;;0.10;0.10;;;;;;;23.24;43.79;101515.13;5075698;28;20062;-79
2023/06/30 08:51:47;;;;;;;0.22;0.22;;;;;;;23.34;43.62;101504.63;5074811;28;20033;-79
2023/06/30 08:54:14;;;;;;;0.20;0.20;;;;;;;23.52;42.55;101508.00;5075106;28;20043;-79
2023/06/30 08:56:41;;;;;;;0.10;0.10;;;;;;;23.68;43.84;101497.06;5073754;28;20490;-78
2023/06/30 08:59:07;;;;;;;0.10;0.10;;;;;;;23.65;41.12;101498.13;5073397;28;20037;-78
2023/06/30 09:01:34;;;;;;;0.57;0.47;;;;;;;23.75;42.85;101492.94;5074268;28;20032;-77
2023/06/30 09:04:00;;;;;;;1.65;0.47;;;;;;;23.84;42.86;101494.19;5074338;28;20111;-77
2023/06/30 09:06:27;;;;;;;0.00;0.00;;;;;;;23.87;41.26;101486.72;5074130;28;20059;-78
2023/06/30 09:09:05;;;;;;;0.10;0.10;;;;;;;23.89;40.92;101483.94;5073474;28;20036;-78
2023/06/30 09:11:33;;;;;;;0.57;0.57;;;;;;;23.88;40.89;101491.19;5074270;28;20028;-78
2023/06/30 09:14:01;;;;;;;0.10;0.10;;;;;;;23.83;40.92;101490.63;5074938;28;20029;-77
2023/06/30 09:16:30;;;;;;;0.00;0.00;;;;;;;23.80;41.58;101490.84;5080257;28;20232;-77
2023/06/30 09:18:56;;;;;;;0.10;0.10;;;;;;;23.82;41.62;101488.88;5077403;28;20092;-78
2023/06/30 09:21:23;;;;;;;0.13;0.13;;;;;;;23.94;42.23;101486.38;5074774;28;20027;-79
2023/06/30 09:23:50;;;;;;;0.00;0.00;;;;;;;24.06;41.77;101480.13;5074689;28;20039;-79
2023/06/30 09:26:17;;;;;;;0.10;0.10;;;;;;;24.10;41.36;101470.84;5075220;28;20028;-79
2023/06/30 09:28:44;;;;;;;0.10;0.10;;;;;;;24.20;41.43;101474.66;5076443;28;20024;-79
2023/06/30 09:31:11;;;;;;;0.20;0.20;;;;;;;24.34;41.78;101462.03;5072265;28;20021;-78
2023/06/30 09:33:40;;;;;;;0.10;0.10;;;;;;;24.45;40.66;101467.56;5072720;28;20025;-79
2023/06/30 09:36:07;;;;;;;0.10;0.10;;;;;;;24.59;41.42;101471.19;5064286;28;20025;-77
2023/06/30 09:38:34;;;;;;;0.32;0.32;;;;;;;24.51;40.08;101475.28;5074130;28;20040;-78
2023/06/30 09:41:05;;;;;;;0.10;0.10;;;;;;;24.44;39.25;101473.97;5068917;28;20071;-77
2023/06/30 09:43:32;;;;;;;0.20;0.20;;;;;;;24.29;41.02;101480.41;5072273;28;20107;-79
2023/06/30 09:46:00;;;;;;;0.00;0.00;;;;;;;24.23;41.40;101476.28;5075274;28;20048;-77
2023/06/30 09:48:38;;;;;;;0.10;0.10;;;;;;;24.21;41.40;101472.81;5061954;28;20036;-79
2023/06/30 09:51:07;;;;;;;0.10;0.10;;;;;;;24.16;40.77;101474.97;5066189;28;20024;-79
2023/06/30 09:53:37;;;;;;;0.10;0.10;;;;;;;24.29;40.28;101461.44;5061799;28;20059;-79
2023/06/30 09:56:04;;;;;;;0.10;0.10;;;;;;;24.36;40.15;101470.91;5067018;28;20062;-79
2023/06/30 09:58:30;;;;;;;0.10;0.10;;;;;;;24.42;39.14;101465.06;5068397;28;20051;-79
2023/06/30 10:00:57;;;;;;;0.00;0.00;;;;;;;24.39;38.83;101468.00;5067818;28;20043;-78
2023/06/30 10:03:24;;;;;;;0.10;0.10;;;;;;;24.49;40.22;101466.38;5069869;28;20098;-79
2023/06/30 10:05:51;;;;;;;0.10;0.10;;;;;;;24.64;39.94;101466.31;5073010;28;20029;-79
2023/06/30 10:08:20;;;;;;;0.10;0.10;;;;;;;24.74;38.35;101456.56;5066688;28;20029;-78
2023/06/30 10:10:47;;;;;;;3.50;1.08;;;;;;;25.00;39.18;101462.00;5065236;28;20107;-77
2023/06/30 10:13:16;;;;;;;0.10;0.10;;;;;;;25.00;37.67;101453.88;5067549;28;20025;-77
2023/06/30 10:15:43;;;;;;;0.20;0.20;;;;;;;25.03;38.34;101451.81;5069126;28;20033;-78
2023/06/30 10:18:12;;;;;;;0.10;0.10;;;;;;;25.09;38.44;101452.34;5063611;28;20028;-77
2023/06/30 10:20:38;;;;;;;0.10;0.10;;;;;;;25.14;38.35;101445.59;5067453;28;20035;-77
2023/06/30 10:23:05;;;;;;;0.25;0.13;;;;;;;25.20;38.10;101441.56;5059841;28;20043;-77
2023/06/30 10:25:35;;;;;;;0.03;0.03;;;;;;;25.32;37.30;101443.41;5057257;28;20033;-76
2023/06/30 10:28:01;;;;;;;0.10;0.10;;;;;;;25.34;36.10;101446.00;5057846;28;20036;-77
2023/06/30 10:30:29;;;;;;;0.10;0.10;;;;;;;25.32;38.14;101445.22;5063197;28;20028;-77
2023/06/30 10:32:55;;;;;;;0.00;0.00;;;;;;;25.15;36.77;101441.03;5069632;28;20033;-77
2023/06/30 10:35:21;;;;;;;0.03;0.03;;;;;;;25.14;38.43;101444.72;5070313;28;20111;-77
2023/06/30 10:37:48;;;;;;;0.10;0.10;;;;;;;25.05;37.90;101446.25;5067205;28;20074;-77
2023/06/30 10:40:24;;;;;;;0.10;0.10;;;;;;;25.04;38.42;101437.25;5071443;28;20024;-78
2023/06/30 10:42:52;;;;;;;0.05;0.05;;;;;;;24.91;37.86;101433.72;5071180;28;20039;-78
2023/06/30 10:45:19;;;;;;;0.20;0.20;;;;;;;25.04;37.91;101423.69;5072925;28;20016;-78
2023/06/30 10:47:50;;;;;;;0.10;0.10;;;;;;;25.20;38.23;101420.72;5072697;28;20115;-77
2023/06/30 10:50:17;;;;;;;0.10;0.10;;;;;;;25.23;37.82;101416.06;5075214;28;20023;-78
2023/06/30 10:52:51;;;;;;;0.20;0.20;;;;;;;25.32;38.05;101420.81;5068679;28;20066;-78
2023/06/30 10:55:20;;;;;;;0.20;0.20;;;;;;;25.34;37.67;101429.72;5070062;28;20032;-78
2023/06/30 10:57:51;;;;;;;0.35;0.35;;;;;;;25.23;37.65;101419.63;5070600;28;20017;-78
2023/06/30 11:00:20;;;;;;;1.05;0.98;;;;;;;25.34;38.52;101413.44;5073012;28;20028;-78
2023/06/30 11:02:49;;;;;;;0.10;0.10;;;;;;;25.15;37.94;101414.78;5073867;28;20046;-78
2023/06/30 11:10:47;;;;;;;0.15;0.15;;;;;;;25.41;38.37;101403.03;5061939;28;20392;-79
2023/06/30 11:13:13;;;;;;;0.30;0.30;;;;;;;25.51;37.97;101410.38;5036736;28;20055;-79
2023/06/30 11:15:47;;;;;;;0.10;0.10;;;;;;;25.64;38.16;101402.16;5051015;28;20091;-79
2023/06/30 11:18:19;;;;;;;0.10;0.10;;;;;;;25.86;37.45;101405.09;5041792;28;20394;-79
2023/06/30 11:21:02;;;;;;;0.30;0.30;;;;;;;25.93;37.27;101403.66;5052257;28;20124;-80
2023/06/30 11:23:32;;;;;;;0.10;0.10;;;;;;;25.83;35.58;101398.06;5052279;28;20036;-78
2023/06/30 11:26:10;;;;;;;0.10;0.10;;;;;;;25.74;36.29;101401.50;5053092;28;20462;-79
2023/06/30 11:28:42;;;;;;;0.17;0.17;;;;;;;25.56;36.54;101396.47;5052712;28;20075;-79